Time;durP1;ratioP1;P1;durP2;ratioP2;P2;SDS_P1;SDS_P2;PMS_P1;PMS_P2;Temp;Humidity;BMP_temperature;BMP_pressure;BME280_temperature;BME280_humidity;BME280_pressure;Samples;Min_cycle;Max_cycle;Signal;HPM_P1;HPM_P2
2023/08/24 00:01:21;;;;;;;7.57;6.97;;;21.30;1.00;;;;;;6340380;22;20441;-43
2023/08/24 00:03:48;;;;;;;7.97;7.17;;;21.30;65.00;;;;;;6338427;22;20151;-43
2023/08/24 00:06:14;;;;;;;8.40;7.80;;;21.30;99.90;;;;;;6337935;22;20173;-44
2023/08/24 00:08:39;;;;;;;8.77;8.07;;;21.30;99.90;;;;;;6338318;22;20385;-44
2023/08/24 00:11:05;;;;;;;9.50;8.73;;;21.30;1.00;;;;;;6337827;22;20846;-44
2023/08/24 00:13:31;;;;;;;9.07;8.37;;;21.20;1.00;;;;;;6338226;22;20179;-44
2023/08/24 00:15:57;;;;;;;8.50;7.93;;;21.20;99.90;;;;;;6338682;22;20284;-43
2023/08/24 00:18:25;;;;;;;9.00;8.37;;;21.20;1.00;;;;;;6338724;22;20384;-44
2023/08/24 00:20:50;;;;;;;9.37;8.67;;;21.20;1.00;;;;;;6340588;22;20664;-43
2023/08/24 00:23:17;;;;;;;8.30;7.70;;;21.20;99.90;;;;;;6339629;22;20511;-44
2023/08/24 00:25:42;;;;;;;8.23;7.57;;;21.10;99.90;;;;;;6339841;22;20397;-44
2023/08/24 00:28:08;;;;;;;9.67;8.87;;;21.10;1.00;;;;;;6338859;22;20407;-44
2023/08/24 00:30:34;;;;;;;10.27;9.10;;;21.10;1.00;;;;;;6338706;22;20499;-44
2023/08/24 00:32:59;;;;;;;8.93;8.00;;;21.10;1.00;;;;;;6338042;22;20174;-42
2023/08/24 00:35:25;;;;;;;8.40;7.80;;;21.10;1.00;;;;;;6338565;22;20358;-44
2023/08/24 00:37:51;;;;;;;8.50;7.90;;;21.10;1.00;;;;;;6336677;22;20595;-44
2023/08/24 00:40:18;;;;;;;9.10;8.30;;;21.10;1.00;;;;;;6338152;22;20519;-43
2023/08/24 00:42:45;;;;;;;9.50;8.60;;;21.00;1.00;;;;;;6338697;22;20392;-44
2023/08/24 00:45:12;;;;;;;8.63;8.03;;;21.10;35.60;;;;;;6338761;22;20656;-44
2023/08/24 00:47:40;;;;;;;9.10;8.27;;;21.10;1.00;;;;;;6338802;22;20488;-44
2023/08/24 00:50:09;;;;;;;9.07;8.27;;;21.00;1.00;;;;;;6338648;22;20353;-44
2023/08/24 00:52:39;;;;;;;9.40;8.70;;;21.00;1.00;;;;;;6335716;22;20444;-44
2023/08/24 00:55:05;;;;;;;9.27;8.40;;;20.90;89.30;;;;;;6337157;22;20584;-44
2023/08/24 00:57:32;;;;;;;8.83;7.97;;;20.90;99.90;;;;;;6336495;22;20400;-43
2023/08/24 00:59:59;;;;;;;9.50;8.70;;;20.90;99.90;;;;;;6337892;22;20405;-44
2023/08/24 01:02:25;;;;;;;8.90;8.13;;;20.90;99.90;;;;;;6338586;22;20710;-44
2023/08/24 01:04:51;;;;;;;10.00;9.00;;;20.90;99.90;;;;;;6338789;22;20741;-44
2023/08/24 01:07:17;;;;;;;9.20;8.47;;;20.90;99.90;;;;;;6337612;22;20381;-44
2023/08/24 01:09:43;;;;;;;9.73;8.90;;;20.90;99.90;;;;;;6339664;22;20387;-44
2023/08/24 01:12:20;;;;;;;9.30;8.50;;;20.90;99.90;;;;;;6338793;22;20385;-44
2023/08/24 01:14:51;;;;;;;9.10;8.40;;;20.90;99.90;;;;;;6312190;22;20189;-44
2023/08/24 01:17:22;;;;;;;9.43;8.73;;;20.90;1.00;;;;;;6339791;22;20354;-51
2023/08/24 01:19:48;;;;;;;9.07;8.27;;;20.90;99.90;;;;;;6338881;22;20408;-43
2023/08/24 01:22:32;;;;;;;9.90;8.90;;;20.90;1.00;;;;;;6339253;22;20765;-44
2023/08/24 01:25:05;;;;;;;10.63;9.73;;;20.80;99.90;;;;;;6340313;22;20411;-44
2023/08/24 01:27:32;;;;;;;9.63;8.80;;;20.80;1.00;;;;;;6339523;22;20377;-44
2023/08/24 01:29:59;;;;;;;9.33;8.63;;;20.80;1.00;;;;;;6337980;22;20724;-44
2023/08/24 01:32:25;;;;;;;9.90;8.90;;;20.80;1.00;;;;;;6338261;22;20785;-43
2023/08/24 01:34:50;;;;;;;10.53;9.53;;;20.80;1.00;;;;;;6338749;22;20354;-44
2023/08/24 01:37:16;;;;;;;9.50;8.70;;;20.80;1.00;;;;;;6338863;22;20222;-45
2023/08/24 01:39:58;;;;;;;10.50;9.70;;;20.70;30.70;;;;;;6336616;22;20985;-44
2023/08/24 01:42:27;;;;;;;10.37;9.57;;;20.80;99.90;;;;;;6337452;22;20147;-44
2023/08/24 01:44:58;;;;;;;9.90;9.20;;;20.80;56.10;;;;;;6335152;22;20719;-44
2023/08/24 01:47:24;;;;;;;10.67;9.87;;;20.80;1.00;;;;;;6334768;22;20800;-44
2023/08/24 01:49:50;;;;;;;10.10;9.30;;;20.70;1.00;;;;;;6336834;22;20364;-44
2023/08/24 01:52:16;;;;;;;9.50;8.80;;;20.70;1.00;;;;;;6337867;22;20679;-44
2023/08/24 01:54:43;;;;;;;9.40;8.70;;;20.60;1.00;;;;;;6337731;22;20507;-44
2023/08/24 01:57:08;;;;;;;10.43;9.63;;;20.60;58.10;;;;;;6338806;22;20385;-44
2023/08/24 01:59:34;;;;;;;9.20;8.50;;;20.60;99.90;;;;;;6338927;22;20405;-43
2023/08/24 02:02:00;;;;;;;10.97;10.07;;;20.50;99.90;;;;;;6339152;22;20131;-44
2023/08/24 02:04:25;;;;;;;9.67;8.90;;;20.50;99.90;;;;;;6339408;22;20587;-44
2023/08/24 02:06:51;;;;;;;10.10;9.20;;;20.50;99.90;;;;;;6339713;22;20233;-44
2023/08/24 02:09:16;;;;;;;11.50;10.30;;;20.40;99.90;;;;;;6338857;22;20170;-45
2023/08/24 02:11:42;;;;;;;10.40;9.47;;;20.40;1.00;;;;;;6336730;22;20548;-45
2023/08/24 02:14:08;;;;;;;10.23;9.47;;;20.40;1.00;;;;;;6337488;22;20267;-44
2023/08/24 02:16:33;;;;;;;10.23;9.37;;;20.40;1.00;;;;;;6338616;22;20557;-45
2023/08/24 02:18:59;;;;;;;10.33;9.60;;;20.40;1.00;;;;;;6338056;22;20155;-45
2023/08/24 02:21:25;;;;;;;10.70;9.90;;;20.40;1.00;;;;;;6338429;22;20148;-44
2023/08/24 02:23:50;;;;;;;9.97;9.17;;;20.40;1.00;;;;;;6338226;22;20425;-45
2023/08/24 02:26:16;;;;;;;10.03;9.30;;;20.40;99.90;;;;;;6341385;22;20132;-45
2023/08/24 02:28:41;;;;;;;11.10;10.20;;;20.50;35.00;;;;;;6341409;22;20128;-45
2023/08/24 02:31:07;;;;;;;9.90;9.20;;;20.40;1.00;;;;;;6341998;22;20535;-45
2023/08/24 02:33:51;;;;;;;9.80;9.10;;;20.40;1.00;;;;;;6340200;22;20179;-45
2023/08/24 02:36:17;;;;;;;9.70;8.90;;;20.40;1.00;;;;;;6339764;22;20158;-45
2023/08/24 02:38:42;;;;;;;10.17;9.37;;;20.40;1.00;;;;;;6339935;22;20385;-45
2023/08/24 02:41:09;;;;;;;11.30;10.30;;;20.50;1.00;;;;;;6341181;22;20210;-43
2023/08/24 02:43:34;;;;;;;10.33;9.33;;;20.50;1.00;;;;;;6341475;22;20162;-45
2023/08/24 02:46:06;;;;;;;10.97;9.97;;;20.50;1.00;;;;;;6341393;22;20418;-45
2023/08/24 02:48:32;;;;;;;11.07;10.17;;;20.50;1.00;;;;;;6338039;22;20183;-45
2023/08/24 02:50:59;;;;;;;10.07;9.23;;;20.50;99.90;;;;;;6337913;22;20413;-44
2023/08/24 02:53:25;;;;;;;9.93;9.10;;;20.60;99.90;;;;;;6338532;22;20493;-45
2023/08/24 02:55:51;;;;;;;10.83;10.00;;;20.50;1.00;;;;;;6339308;22;20439;-45
2023/08/24 02:58:16;;;;;;;10.97;9.97;;;20.50;1.00;;;;;;6340096;22;20638;-45
2023/08/24 03:00:42;;;;;;;10.27;9.57;;;20.50;1.00;;;;;;6340828;22;20385;-44
2023/08/24 03:03:07;;;;;;;10.37;9.53;;;20.50;99.90;;;;;;6339685;22;20151;-44
2023/08/24 03:05:36;;;;;;;9.73;9.03;;;20.60;99.90;;;;;;6339575;22;20163;-45
2023/08/24 03:08:04;;;;;;;10.07;9.17;;;20.60;99.90;;;;;;6337359;22;20147;-45
2023/08/24 03:10:30;;;;;;;13.87;10.57;;;20.60;99.90;;;;;;6339085;22;20400;-45
2023/08/24 03:12:56;;;;;;;11.60;10.50;;;20.60;99.90;;;;;;6339090;22;20490;-45
2023/08/24 03:15:21;;;;;;;11.17;10.20;;;20.50;1.00;;;;;;6338366;22;20571;-44
2023/08/24 03:17:47;;;;;;;10.43;9.43;;;20.50;1.00;;;;;;6336318;22;20278;-45
2023/08/24 03:20:13;;;;;;;10.33;9.30;;;20.40;1.00;;;;;;6336793;22;20169;-45
2023/08/24 03:22:40;;;;;;;11.03;10.10;;;20.40;1.00;;;;;;6337044;22;20230;-46
2023/08/24 03:25:06;;;;;;;10.50;9.67;;;20.30;99.90;;;;;;6339047;22;20385;-45
2023/08/24 03:27:32;;;;;;;10.23;9.47;;;20.30;99.90;;;;;;6338811;22;20720;-45
2023/08/24 03:29:58;;;;;;;10.60;9.70;;;20.30;99.90;;;;;;6340350;22;20382;-45
2023/08/24 03:32:24;;;;;;;10.47;9.77;;;20.30;99.90;;;;;;6339860;22;20511;-45
2023/08/24 03:34:50;;;;;;;11.37;10.50;;;20.30;99.90;;;;;;6338246;22;20411;-45
2023/08/24 03:37:15;;;;;;;10.70;9.80;;;20.30;78.90;;;;;;6340063;22;20213;-44
2023/08/24 03:39:41;;;;;;;10.10;9.33;;;20.40;57.70;;;;;;6340689;22;20267;-45
2023/08/24 03:42:07;;;;;;;10.73;9.73;;;20.40;99.90;;;;;;6340650;22;20458;-45
2023/08/24 03:44:34;;;;;;;10.60;9.70;;;20.40;99.90;;;;;;6338139;22;20170;-45
2023/08/24 03:47:00;;;;;;;10.10;9.40;;;20.40;99.90;;;;;;6338418;22;20805;-45
2023/08/24 03:49:26;;;;;;;10.53;9.73;;;20.40;13.10;;;;;;6339781;22;20373;-45
2023/08/24 03:51:51;;;;;;;10.43;9.60;;;20.40;96.20;;;;;;6339891;22;20216;-44
2023/08/24 03:54:17;;;;;;;11.17;10.27;;;20.40;99.90;;;;;;6339646;22;20430;-45
2023/08/24 03:56:43;;;;;;;12.20;9.33;;;20.40;99.90;;;;;;6340213;22;20484;-43
2023/08/24 03:59:08;;;;;;;10.37;9.40;;;20.40;96.40;;;;;;6339897;22;20197;-43
2023/08/24 04:01:34;;;;;;;9.87;9.10;;;20.50;53.40;;;;;;6339668;22;20418;-40
2023/08/24 04:03:59;;;;;;;10.60;9.80;;;20.50;26.20;;;;;;6339529;22;20151;-39
2023/08/24 04:06:25;;;;;;;10.30;9.60;;;20.60;1.00;;;;;;6340514;22;20226;-37
2023/08/24 04:08:52;;;;;;;11.60;10.70;;;20.70;1.00;;;;;;6340231;22;20162;-37
2023/08/24 04:11:17;;;;;;;11.23;10.33;;;20.60;1.00;;;;;;6339717;22;20426;-37
2023/08/24 04:13:43;;;;;;;10.27;9.47;;;20.60;1.00;;;;;;6339848;22;20405;-37
2023/08/24 04:16:08;;;;;;;10.53;9.63;;;20.70;1.00;;;;;;6340516;22;20158;-35
2023/08/24 04:18:34;;;;;;;10.90;10.10;;;20.70;1.00;;;;;;6337093;22;20557;-36
2023/08/24 04:21:00;;;;;;;10.80;10.00;;;20.80;1.00;;;;;;6338589;22;20151;-37
2023/08/24 04:23:28;;;;;;;10.20;9.43;;;20.80;1.00;;;;;;6338532;22;20590;-37
2023/08/24 04:25:55;;;;;;;14.07;10.30;;;20.90;99.90;;;;;;6337903;22;20554;-38
2023/08/24 04:28:20;;;;;;;11.03;10.13;;;20.80;99.90;;;;;;6338470;22;20381;-38
2023/08/24 04:30:59;;;;;;;11.40;10.20;;;20.70;1.00;;;;;;6338646;22;20408;-36
2023/08/24 04:33:25;;;;;;;11.93;11.00;;;20.70;99.90;;;;;;6337672;22;20440;-36
2023/08/24 04:35:51;;;;;;;10.90;10.10;;;20.60;1.00;;;;;;6337405;22;20822;-37
2023/08/24 04:38:17;;;;;;;10.60;9.70;;;20.50;5.00;;;;;;6335656;22;20124;-37
2023/08/24 04:40:53;;;;;;;12.10;11.13;;;20.40;99.90;;;;;;6336394;22;20503;-38
2023/08/24 04:43:21;;;;;;;10.90;9.87;;;20.40;99.90;;;;;;6336647;22;20806;-37
2023/08/24 04:45:48;;;;;;;11.43;10.60;;;20.40;99.90;;;;;;6339283;22;20412;-37
2023/08/24 04:48:14;;;;;;;11.33;10.33;;;20.40;99.90;;;;;;6339025;22;20384;-38
2023/08/24 04:50:39;;;;;;;10.93;10.07;;;20.50;99.90;;;;;;6336474;22;20412;-39
2023/08/24 04:53:06;;;;;;;10.77;9.87;;;20.50;99.90;;;;;;6334820;22;20408;-36
2023/08/24 04:55:31;;;;;;;11.03;9.93;;;20.50;99.90;;;;;;6334052;22;20510;-40
2023/08/24 04:57:57;;;;;;;10.80;9.90;;;20.50;99.90;;;;;;6337227;22;20386;-36
2023/08/24 05:00:23;;;;;;;11.73;10.83;;;20.50;99.90;;;;;;6337870;22;20143;-37
2023/08/24 05:02:48;;;;;;;11.10;10.20;;;20.50;99.90;;;;;;6335044;22;20477;-38
2023/08/24 05:05:14;;;;;;;11.17;10.17;;;20.50;99.90;;;;;;6336945;22;20223;-36
2023/08/24 05:07:40;;;;;;;10.13;9.23;;;20.50;99.90;;;;;;6336442;22;20142;-37
2023/08/24 05:10:07;;;;;;;11.30;10.30;;;20.50;99.90;;;;;;6339950;22;20222;-38
2023/08/24 05:12:35;;;;;;;10.47;9.57;;;20.50;99.90;;;;;;6341966;22;20433;-40
2023/08/24 05:15:04;;;;;;;11.17;10.27;;;20.60;99.90;;;;;;6338999;22;20373;-36
2023/08/24 05:17:31;;;;;;;11.50;10.50;;;20.60;99.90;;;;;;6336950;22;21271;-38
2023/08/24 05:19:58;;;;;;;10.97;9.87;;;20.70;1.00;;;;;;6336812;22;20346;-36
2023/08/24 05:22:23;;;;;;;10.90;10.00;;;20.70;1.00;;;;;;6337553;22;20583;-37
2023/08/24 05:24:49;;;;;;;10.20;9.50;;;20.70;1.00;;;;;;6338337;22;20787;-34
2023/08/24 05:27:15;;;;;;;11.67;10.77;;;20.70;5.20;;;;;;6337812;22;20147;-43
2023/08/24 05:29:42;;;;;;;11.63;10.83;;;20.70;1.00;;;;;;6338600;22;20446;-44
2023/08/24 05:32:07;;;;;;;11.43;10.53;;;20.70;1.00;;;;;;6338310;22;20757;-44
2023/08/24 05:34:33;;;;;;;12.37;11.20;;;20.60;99.90;;;;;;6339086;22;20551;-44
2023/08/24 05:36:59;;;;;;;12.00;11.20;;;20.50;99.90;;;;;;6337714;22;20151;-44
2023/08/24 05:39:24;;;;;;;12.33;11.30;;;20.40;99.90;;;;;;6336540;22;20147;-44
2023/08/24 05:41:53;;;;;;;11.60;10.70;;;20.30;1.00;;;;;;6334220;22;20148;-44
2023/08/24 05:44:19;;;;;;;12.70;11.80;;;20.30;1.00;;;;;;6336852;22;20167;-44
2023/08/24 05:46:46;;;;;;;11.77;10.97;;;20.30;1.00;;;;;;6335972;22;20447;-44
2023/08/24 05:49:11;;;;;;;12.60;11.50;;;20.30;6.20;;;;;;6335427;22;20461;-44
2023/08/24 05:51:37;;;;;;;13.80;11.70;;;20.30;99.90;;;;;;6308229;22;20401;-43
2023/08/24 05:54:03;;;;;;;12.57;11.57;;;20.20;99.90;;;;;;6334875;22;20301;-44
2023/08/24 05:56:28;;;;;;;12.13;11.13;;;20.20;1.00;;;;;;6337329;22;20132;-45
2023/08/24 05:58:55;;;;;;;12.27;11.37;;;20.30;1.00;;;;;;6338238;22;20261;-45
2023/08/24 06:01:20;;;;;;;12.20;11.10;;;20.40;1.00;;;;;;6338192;22;20150;-45
2023/08/24 06:03:46;;;;;;;11.77;10.60;;;20.50;99.90;;;;;;6336825;22;20446;-45
2023/08/24 06:06:12;;;;;;;11.47;10.47;;;20.50;99.90;;;;;;6337532;22;20151;-45
2023/08/24 06:08:38;;;;;;;11.67;10.77;;;20.60;99.90;;;;;;6339315;22;20524;-45
2023/08/24 06:11:03;;;;;;;11.63;10.63;;;20.70;1.00;;;;;;6336409;22;20358;-45
2023/08/24 06:13:29;;;;;;;11.20;10.40;;;20.70;1.00;;;;;;6337484;22;20186;-45
2023/08/24 06:15:54;;;;;;;16.10;14.70;;;20.80;99.90;;;;;;6336077;22;20158;-44
2023/08/24 06:18:20;;;;;;;14.60;13.23;;;20.80;99.90;;;;;;6336181;22;20148;-45
2023/08/24 06:20:46;;;;;;;11.13;10.30;;;20.90;99.90;;;;;;6337415;22;20171;-45
2023/08/24 06:23:14;;;;;;;11.40;10.50;;;20.90;99.90;;;;;;6335638;22;20344;-45
2023/08/24 06:25:40;;;;;;;11.50;10.60;;;20.90;99.90;;;;;;6336205;22;20291;-52
2023/08/24 06:28:06;;;;;;;12.00;10.17;;;21.00;98.70;;;;;;6333141;22;20385;-45
2023/08/24 06:30:36;;;;;;;11.57;10.63;;;21.00;99.90;;;;;;6335760;22;20151;-45
2023/08/24 06:33:03;;;;;;;10.80;9.90;;;21.00;4.70;;;;;;6335092;22;21042;-45
2023/08/24 06:35:28;;;;;;;12.03;11.00;;;21.10;1.00;;;;;;6336324;22;20427;-45
2023/08/24 06:37:54;;;;;;;11.93;11.00;;;21.20;1.00;;;;;;6335595;22;20357;-45
2023/08/24 06:40:20;;;;;;;12.27;10.80;;;21.20;1.00;;;;;;6335042;22;20144;-43
2023/08/24 06:42:45;;;;;;;10.40;9.60;;;21.30;1.00;;;;;;6332803;22;20163;-44
2023/08/24 06:45:11;;;;;;;11.63;10.67;;;21.30;1.00;;;;;;6334451;22;20155;-44
2023/08/24 06:47:37;;;;;;;10.83;10.03;;;21.30;1.00;;;;;;6333228;22;20151;-44
2023/08/24 06:50:03;;;;;;;13.33;12.13;;;21.40;1.00;;;;;;6332097;22;20138;-44
2023/08/24 06:52:28;;;;;;;12.50;11.30;;;21.40;99.90;;;;;;6333755;22;20151;-44
2023/08/24 06:54:56;;;;;;;12.00;10.93;;;21.50;99.90;;;;;;6332309;22;20153;-44
2023/08/24 06:57:22;;;;;;;14.00;12.70;;;21.50;99.90;;;;;;6333015;22;20430;-44
2023/08/24 06:59:47;;;;;;;12.10;11.07;;;21.60;99.90;;;;;;6333645;22;20442;-44
2023/08/24 07:02:13;;;;;;;13.20;12.10;;;21.60;99.90;;;;;;6335209;22;20350;-43
2023/08/24 07:04:40;;;;;;;12.90;11.90;;;21.70;51.70;;;;;;6335345;22;20208;-44
2023/08/24 07:07:06;;;;;;;12.27;11.27;;;21.70;1.00;;;;;;6334610;22;20155;-44
2023/08/24 07:09:32;;;;;;;12.93;11.73;;;21.70;1.00;;;;;;6335873;22;20959;-44
2023/08/24 07:11:57;;;;;;;12.13;11.23;;;21.80;1.00;;;;;;6334991;22;20386;-44
2023/08/24 07:14:23;;;;;;;12.70;11.30;;;21.80;1.00;;;;;;6334186;22;20550;-44
2023/08/24 07:16:49;;;;;;;13.10;10.63;;;21.90;99.90;;;;;;6335604;22;20269;-44
2023/08/24 07:19:15;;;;;;;12.07;10.97;;;22.00;99.90;;;;;;6335374;22;20144;-44
2023/08/24 07:21:40;;;;;;;10.20;9.50;;;22.10;99.90;;;;;;6336505;22;20230;-44
2023/08/24 07:24:06;;;;;;;11.10;10.20;;;22.20;1.00;;;;;;6335641;22;20551;-46
2023/08/24 07:26:31;;;;;;;11.33;10.33;;;22.50;1.00;;;;;;6332422;22;20272;-44
2023/08/24 07:28:57;;;;;;;12.13;10.93;;;22.70;99.90;;;;;;6334257;22;20387;-44
2023/08/24 07:31:23;;;;;;;11.27;10.37;;;23.00;1.00;;;;;;6337110;22;20280;-44
2023/08/24 07:33:49;;;;;;;10.90;10.00;;;23.30;1.00;;;;;;6337578;22;20465;-44
2023/08/24 07:36:15;;;;;;;11.47;10.37;;;23.70;99.90;;;;;;6338400;22;20151;-44
2023/08/24 07:38:40;;;;;;;10.60;9.40;;;24.00;1.00;;;;;;6336595;22;20523;-44
2023/08/24 07:41:06;;;;;;;40.17;15.90;;;24.30;1.00;;;;;;6335266;22;20407;-44
2023/08/24 07:43:32;;;;;;;20.30;11.13;;;24.70;1.00;;;;;;6335743;22;20155;-44
2023/08/24 07:45:59;;;;;;;10.40;9.03;;;25.00;1.00;;;;;;6337496;22;20385;-44
2023/08/24 07:48:25;;;;;;;12.40;9.20;;;25.30;1.00;;;;;;6336905;22;20395;-44
2023/08/24 07:50:51;;;;;;;8.73;8.03;;;25.60;99.90;;;;;;6336715;22;20619;-43
2023/08/24 07:53:16;;;;;;;10.33;8.53;;;25.90;99.90;;;;;;6335811;22;20475;-44
2023/08/24 07:55:43;;;;;;;8.17;7.43;;;26.30;99.90;;;;;;6337724;22;20353;-44
2023/08/24 07:58:08;;;;;;;12.70;8.43;;;26.50;99.90;;;;;;6334637;22;20159;-44
2023/08/24 08:00:34;;;;;;;7.93;7.33;;;26.90;99.90;;;;;;6333452;22;20459;-44
2023/08/24 08:03:00;;;;;;;9.33;7.60;;;27.20;87.90;;;;;;6334711;22;20155;-44
2023/08/24 08:05:26;;;;;;;7.43;6.80;;;27.60;35.00;;;;;;6334142;22;20132;-44
2023/08/24 08:07:52;;;;;;;8.10;7.30;;;27.90;9.30;;;;;;6334662;22;20275;-44
2023/08/24 08:10:20;;;;;;;8.07;7.43;;;28.10;1.00;;;;;;6333123;22;20743;-44
2023/08/24 08:12:45;;;;;;;8.57;7.87;;;28.20;1.00;;;;;;6334926;22;20696;-44
2023/08/24 08:15:11;;;;;;;6.80;6.30;;;28.20;1.00;;;;;;6334359;22;20381;-44
2023/08/24 08:17:37;;;;;;;8.20;7.07;;;28.30;1.00;;;;;;6334139;22;20174;-44
2023/08/24 08:20:03;;;;;;;8.67;7.77;;;28.40;1.00;;;;;;6331697;22;20155;-44
2023/08/24 08:22:29;;;;;;;7.80;7.27;;;28.50;1.00;;;;;;6330346;22;20183;-44
2023/08/24 08:24:56;;;;;;;8.10;7.37;;;28.60;1.00;;;;;;6330945;22;20385;-44
2023/08/24 08:27:22;;;;;;;7.27;6.67;;;28.60;1.00;;;;;;6327754;22;20191;-44
2023/08/24 08:29:48;;;;;;;10.30;7.07;;;28.70;1.00;;;;;;6329982;22;20492;-44
2023/08/24 08:32:14;;;;;;;8.77;7.93;;;29.00;1.00;;;;;;6332753;22;20350;-44
2023/08/24 08:34:39;;;;;;;8.10;7.07;;;29.40;1.00;;;;;;6330603;22;20227;-44
2023/08/24 08:37:05;;;;;;;8.60;7.70;;;29.50;1.00;;;;;;6333435;22;20147;-44
2023/08/24 08:39:32;;;;;;;8.37;7.77;;;29.40;1.00;;;;;;6333232;22;20166;-44
2023/08/24 08:41:58;;;;;;;8.70;7.27;;;29.40;1.00;;;;;;6335930;22;20147;-44
2023/08/24 08:44:25;;;;;;;9.30;7.20;;;29.60;1.00;;;;;;6335823;22;20807;-44
2023/08/24 08:46:51;;;;;;;8.03;7.40;;;29.80;1.00;;;;;;6332519;22;20339;-44
2023/08/24 08:49:17;;;;;;;7.93;6.90;;;30.00;1.00;;;;;;6334675;22;20654;-44
2023/08/24 08:51:43;;;;;;;8.50;7.60;;;30.10;1.00;;;;;;6333012;22;20397;-44
2023/08/24 08:54:09;;;;;;;9.03;7.80;;;30.30;1.00;;;;;;6335552;22;20429;-43
2023/08/24 08:56:35;;;;;;;9.57;7.70;;;30.40;1.00;;;;;;6335497;22;20175;-44
2023/08/24 08:59:02;;;;;;;8.20;7.50;;;30.60;1.00;;;;;;6336125;22;20139;-44
2023/08/24 09:01:28;;;;;;;8.43;7.80;;;30.80;1.00;;;;;;6336634;22;20154;-44
2023/08/24 09:03:54;;;;;;;8.53;7.90;;;30.90;1.00;;;;;;6337717;22;20813;-44
2023/08/24 09:06:20;;;;;;;9.20;8.30;;;31.00;1.00;;;;;;6338001;22;20412;-45
2023/08/24 09:08:48;;;;;;;8.33;7.50;;;31.20;1.00;;;;;;6337701;22;20377;-44
2023/08/24 09:11:15;;;;;;;9.43;8.63;;;31.40;1.00;;;;;;6338046;22;20773;-44
2023/08/24 09:13:40;;;;;;;8.53;7.83;;;31.40;1.00;;;;;;6336198;22;20451;-44
2023/08/24 09:16:07;;;;;;;8.47;7.67;;;31.50;1.00;;;;;;6338498;22;20480;-44
2023/08/24 09:18:39;;;;;;;8.90;8.10;;;31.70;1.00;;;;;;6338537;22;20151;-44
2023/08/24 09:21:09;;;;;;;9.10;8.30;;;31.90;1.00;;;;;;6310157;22;20401;-44
2023/08/24 09:23:35;;;;;;;9.47;8.57;;;31.80;1.00;;;;;;6336316;22;20482;-45
2023/08/24 09:26:00;;;;;;;8.60;7.80;;;31.80;1.00;;;;;;6336750;22;20370;-44
2023/08/24 09:28:26;;;;;;;8.20;7.50;;;31.80;1.00;;;;;;6336008;22;20179;-45
2023/08/24 09:30:56;;;;;;;8.23;7.60;;;31.80;1.00;;;;;;6334950;22;20155;-44
2023/08/24 09:33:23;;;;;;;8.70;8.00;;;31.90;1.00;;;;;;6332175;22;20417;-45
2023/08/24 09:35:54;;;;;;;8.70;7.97;;;31.80;1.00;;;;;;6336291;22;20392;-45
2023/08/24 09:38:23;;;;;;;8.60;8.00;;;31.90;1.00;;;;;;6309547;22;20378;-45
2023/08/24 09:40:53;;;;;;;8.93;8.13;;;31.90;1.00;;;;;;6336873;22;20336;-45
2023/08/24 09:43:20;;;;;;;10.10;8.10;;;32.30;1.00;;;;;;6337674;22;20423;-45
2023/08/24 09:45:52;;;;;;;8.93;8.23;;;32.30;1.00;;;;;;6335917;22;20421;-45
2023/08/24 09:48:19;;;;;;;10.10;9.13;;;32.30;1.00;;;;;;6334514;22;20377;-45
2023/08/24 09:50:50;;;;;;;9.63;8.80;;;32.30;1.00;;;;;;6334231;22;20472;-45
2023/08/24 09:53:20;;;;;;;9.17;8.47;;;32.50;1.00;;;;;;6334846;22;20491;-45
2023/08/24 09:56:00;;;;;;;9.20;8.60;;;32.50;1.00;;;;;;6333043;22;20391;-45
2023/08/24 09:58:27;;;;;;;8.30;7.50;;;32.40;1.00;;;;;;6334087;22;20924;-45
2023/08/24 10:00:53;;;;;;;10.03;7.40;;;32.50;1.00;;;;;;6334147;22;20356;-45
2023/08/24 10:03:20;;;;;;;8.87;8.13;;;33.20;1.00;;;;;;6334224;22;20389;-45
2023/08/24 10:05:53;;;;;;;9.70;8.53;;;33.90;1.00;;;;;;6332569;22;20360;-45
2023/08/24 10:08:24;;;;;;;9.63;8.27;;;34.30;1.00;;;;;;6333476;22;20778;-45
2023/08/24 10:10:54;;;;;;;9.93;8.93;;;34.50;1.00;;;;;;6334320;22;20366;-45
2023/08/24 10:14:11;;;;;;;9.93;9.00;;;34.90;1.00;;;;;;6334006;22;20399;-45
2023/08/24 10:16:38;;;;;;;8.70;8.10;;;35.10;1.00;;;;;;6211211;23;20416;-45
2023/08/24 10:19:04;;;;;;;9.77;8.77;;;35.40;1.00;;;;;;6305026;22;20683;-45
2023/08/24 10:21:29;;;;;;;10.40;9.60;;;35.00;1.00;;;;;;6336310;22;20352;-45
2023/08/24 10:23:56;;;;;;;10.33;9.20;;;34.30;1.00;;;;;;6334312;22;20471;-45
2023/08/24 10:26:26;;;;;;;10.20;9.20;;;33.80;1.00;;;;;;6334867;22;20223;-45
2023/08/24 10:28:52;;;;;;;9.53;8.63;;;33.60;1.00;;;;;;6335499;22;20332;-45
2023/08/24 10:31:17;;;;;;;9.80;9.00;;;33.50;1.00;;;;;;6333205;22;20390;-45
2023/08/24 10:33:45;;;;;;;10.53;9.63;;;33.60;1.00;;;;;;6331630;22;20292;-44
2023/08/24 10:36:14;;;;;;;9.57;8.67;;;33.80;1.00;;;;;;6330625;22;20458;-44
2023/08/24 10:38:42;;;;;;;9.53;8.80;;;34.00;1.00;;;;;;6330847;22;20389;-44
2023/08/24 10:41:09;;;;;;;10.83;9.83;;;34.50;1.00;;;;;;6331052;22;20339;-45
2023/08/24 10:43:37;;;;;;;10.57;9.37;;;35.00;1.00;;;;;;6331568;22;20362;-44
2023/08/24 10:46:03;;;;;;;11.00;10.10;;;35.10;1.00;;;;;;6332075;22;20360;-45
2023/08/24 10:48:41;;;;;;;10.30;9.57;;;35.10;1.00;;;;;;6334911;22;20385;-45
2023/08/24 10:51:17;;;;;;;11.40;10.23;;;35.10;1.00;;;;;;6333887;22;20378;-44
2023/08/24 10:53:48;;;;;;;10.87;9.87;;;34.90;1.00;;;;;;6332401;22;20890;-44
2023/08/24 10:56:15;;;;;;;10.60;9.53;;;34.90;1.00;;;;;;6332485;22;20324;-44
2023/08/24 10:58:42;;;;;;;10.17;9.47;;;34.80;1.00;;;;;;6335016;22;20360;-44
2023/08/24 11:01:17;;;;;;;10.03;9.10;;;34.80;1.00;;;;;;6336032;22;20355;-44
2023/08/24 11:03:49;;;;;;;11.47;10.50;;;34.70;1.00;;;;;;6335563;22;20359;-44
2023/08/24 11:06:19;;;;;;;10.10;9.30;;;34.60;1.00;;;;;;6338840;22;20396;-45
2023/08/24 11:08:49;;;;;;;9.80;9.03;;;34.60;1.00;;;;;;6335888;22;20375;-45
2023/08/24 11:11:22;;;;;;;10.53;9.60;;;34.80;1.00;;;;;;6335206;22;20328;-45
2023/08/24 11:14:15;;;;;;;10.87;9.87;;;35.20;1.00;;;;;;6335356;22;20710;-45
2023/08/24 11:16:48;;;;;;;10.00;9.10;;;35.30;1.00;;;;;;6333165;22;20804;-45
2023/08/24 11:19:14;;;;;;;10.27;9.37;;;35.80;1.00;;;;;;6334912;22;20348;-44
2023/08/24 11:21:42;;;;;;;16.30;10.00;;;36.00;1.00;;;;;;6336260;22;20418;-45
2023/08/24 11:24:12;;;;;;;12.20;10.03;;;36.00;1.00;;;;;;6336075;22;20424;-45
2023/08/24 11:26:47;;;;;;;10.13;9.30;;;35.70;1.00;;;;;;6336790;22;20397;-45
2023/08/24 11:29:13;;;;;;;11.50;10.40;;;35.80;1.00;;;;;;6339335;22;20358;-45
2023/08/24 11:31:39;;;;;;;10.97;9.97;;;35.80;1.00;;;;;;6337936;22;20835;-45
2023/08/24 11:34:07;;;;;;;10.90;10.00;;;36.10;1.00;;;;;;6337311;22;20486;-45
2023/08/24 11:36:45;;;;;;;11.80;10.70;;;36.70;1.00;;;;;;6338508;22;20499;-45
2023/08/24 11:39:22;;;;;;;12.27;11.07;;;36.70;1.00;;;;;;6337942;22;20352;-45
2023/08/24 11:42:04;;;;;;;11.43;9.83;;;36.70;1.00;;;;;;6336273;22;20446;-45
2023/08/24 11:44:46;;;;;;;11.10;10.13;;;35.80;1.00;;;;;;6337815;22;20363;-45
2023/08/24 11:47:12;;;;;;;11.67;10.60;;;36.10;1.00;;;;;;6337120;22;20344;-45
2023/08/24 11:49:38;;;;;;;11.67;9.90;;;36.50;1.00;;;;;;6337210;22;20363;-45
2023/08/24 11:52:04;;;;;;;11.27;10.00;;;36.70;1.00;;;;;;6337584;22;20381;-45
2023/08/24 11:54:32;;;;;;;11.40;10.30;;;36.80;1.00;;;;;;6337698;22;20260;-45
2023/08/24 11:56:58;;;;;;;10.70;9.90;;;36.50;1.00;;;;;;6336841;22;20151;-44
2023/08/24 11:59:24;;;;;;;13.60;10.63;;;36.30;1.00;;;;;;6336933;22;20444;-44
2023/08/24 12:01:51;;;;;;;11.47;10.47;;;36.40;1.00;;;;;;6337341;22;20550;-44
2023/08/24 12:04:16;;;;;;;10.40;9.50;;;36.50;1.00;;;;;;6336743;22;20453;-45
2023/08/24 12:06:42;;;;;;;9.93;9.03;;;35.90;1.00;;;;;;6337792;22;20967;-44
2023/08/24 12:09:08;;;;;;;12.03;10.83;;;35.90;1.00;;;;;;6338553;22;20226;-44
2023/08/24 12:11:38;;;;;;;11.07;9.80;;;36.30;1.00;;;;;;6337267;22;20284;-44
2023/08/24 12:14:05;;;;;;;10.43;9.53;;;36.20;1.00;;;;;;6338778;22;20155;-45
2023/08/24 12:16:35;;;;;;;11.10;10.20;;;35.90;1.00;;;;;;6337813;22;20830;-45
2023/08/24 12:19:04;;;;;;;10.80;9.70;;;35.90;1.00;;;;;;6308223;22;20396;-45
2023/08/24 12:21:30;;;;;;;11.20;10.10;;;36.30;1.00;;;;;;6338267;22;20442;-45
2023/08/24 12:24:00;;;;;;;10.63;9.80;;;36.50;1.00;;;;;;6336618;22;20428;-45
2023/08/24 12:26:27;;;;;;;10.20;9.40;;;37.10;1.00;;;;;;6336551;22;20398;-44
2023/08/24 12:28:53;;;;;;;10.50;9.60;;;37.40;1.00;;;;;;6337721;22;20354;-44
2023/08/24 12:31:19;;;;;;;10.50;9.50;;;37.80;1.00;;;;;;6338138;22;20437;-45
2023/08/24 12:33:46;;;;;;;10.90;10.00;;;37.80;1.00;;;;;;6336678;22;20432;-44
2023/08/24 12:36:12;;;;;;;10.50;9.60;;;37.20;1.00;;;;;;6336978;22;20543;-44
2023/08/24 12:38:38;;;;;;;11.07;10.03;;;37.20;1.00;;;;;;6337290;22;20381;-44
2023/08/24 12:41:04;;;;;;;9.83;9.00;;;37.30;1.00;;;;;;6338560;22;20389;-44
2023/08/24 12:43:30;;;;;;;11.60;10.40;;;37.50;1.00;;;;;;6339211;22;20364;-44